Time;durP1;ratioP1;P1;durP2;ratioP2;P2;SDS_P1;SDS_P2;PMS_P1;PMS_P2;Temp;Humidity;BMP_temperature;BMP_pressure;BME280_temperature;BME280_humidity;BME280_pressure;Samples;Min_cycle;Max_cycle;Signal;HPM_P1;HPM_P2
2022/06/28 00:01:30;;;;;;;3.72;2.35;;;;;;;22.50;43.57;101704.19;4985211;28;20109;-71
2022/06/28 00:03:57;;;;;;;4.00;2.10;;;;;;;22.48;43.63;101697.97;4981670;28;20050;-71
2022/06/28 00:06:23;;;;;;;4.30;2.40;;;;;;;22.46;43.51;101700.91;4989261;28;20130;-70
2022/06/28 00:08:50;;;;;;;3.40;2.40;;;;;;;22.44;43.25;101696.53;4982339;28;20148;-70
2022/06/28 00:11:17;;;;;;;3.72;2.38;;;;;;;22.43;43.60;101686.50;4983620;28;20142;-70
2022/06/28 00:13:43;;;;;;;3.92;2.50;;;;;;;22.39;43.81;101684.06;4988164;28;20047;-70
2022/06/28 00:16:14;;;;;;;3.83;2.53;;;;;;;22.38;43.74;101695.28;4990794;28;20487;-70
2022/06/28 00:18:42;;;;;;;3.58;2.42;;;;;;;22.34;43.79;101694.72;4984512;28;20423;-70
2022/06/28 00:21:10;;;;;;;4.07;2.38;;;;;;;22.36;43.76;101691.81;4997370;28;20107;-70
2022/06/28 00:23:38;;;;;;;4.18;2.70;;;;;;;22.34;43.39;101689.19;4990478;28;20513;-70
2022/06/28 00:26:06;;;;;;;4.95;2.60;;;;;;;22.33;43.54;101692.97;4984180;28;20128;-71
2022/06/28 00:28:33;;;;;;;3.95;2.50;;;;;;;22.29;43.37;101688.81;4986864;28;20046;-71
2022/06/28 00:31:01;;;;;;;4.18;2.38;;;;;;;22.29;43.39;101690.72;4984590;28;20133;-71
2022/06/28 00:33:27;;;;;;;4.38;2.60;;;;;;;22.25;43.21;101692.91;4989827;28;20047;-70
2022/06/28 00:35:54;;;;;;;3.53;2.72;;;;;;;22.24;43.66;101693.94;4989909;28;20138;-71
2022/06/28 00:38:20;;;;;;;4.25;2.28;;;;;;;22.21;43.45;101697.03;4977458;28;20459;-70
2022/06/28 00:40:49;;;;;;;4.85;2.70;;;;;;;22.21;43.31;101702.56;4973197;28;20053;-71
2022/06/28 00:43:17;;;;;;;4.15;2.53;;;;;;;22.18;43.85;101694.56;4978912;28;20046;-71
2022/06/28 00:45:45;;;;;;;4.88;2.55;;;;;;;22.17;43.39;101689.19;4995717;28;20054;-71
2022/06/28 00:48:14;;;;;;;4.03;2.65;;;;;;;22.14;43.45;101690.41;4978172;28;20086;-71
2022/06/28 00:50:42;;;;;;;3.65;2.67;;;;;;;22.12;43.26;101695.22;4999390;28;20050;-70
2022/06/28 00:53:12;;;;;;;3.83;2.30;;;;;;;22.12;43.65;101700.75;4986363;28;20209;-71
2022/06/28 00:55:40;;;;;;;4.13;2.75;;;;;;;22.08;43.66;101704.81;4987525;28;20050;-70
2022/06/28 00:58:07;;;;;;;3.55;2.60;;;;;;;22.05;43.39;101691.34;4997715;28;20257;-70
2022/06/28 01:00:38;;;;;;;4.00;2.72;;;;;;;22.08;43.56;101698.44;4989343;28;20134;-70
2022/06/28 01:03:05;;;;;;;4.70;2.40;;;;;;;22.02;43.50;101691.63;4992963;28;20046;-70
2022/06/28 01:05:34;;;;;;;3.92;2.55;;;;;;;22.02;43.86;101694.41;4987533;28;20109;-71
2022/06/28 01:08:01;;;;;;;5.10;2.83;;;;;;;21.99;43.63;101695.56;4988761;28;20136;-70
2022/06/28 01:10:27;;;;;;;5.45;2.85;;;;;;;21.97;43.65;101696.78;4977470;28;20054;-70
2022/06/28 01:12:54;;;;;;;3.83;2.42;;;;;;;21.95;43.66;101696.03;4996690;28;20128;-70
2022/06/28 01:15:21;;;;;;;3.75;2.53;;;;;;;21.94;44.11;101699.81;4995688;28;20088;-70
2022/06/28 01:17:47;;;;;;;3.60;2.70;;;;;;;21.92;43.94;101701.84;4996564;28;20137;-70
2022/06/28 01:20:14;;;;;;;4.32;2.45;;;;;;;21.91;43.87;101700.09;4995612;28;20089;-71
2022/06/28 01:22:42;;;;;;;4.03;2.75;;;;;;;21.89;43.44;101699.41;4995006;28;20144;-70
2022/06/28 01:25:10;;;;;;;3.55;2.55;;;;;;;21.86;43.95;101697.81;4988278;28;20125;-70
2022/06/28 01:27:37;;;;;;;4.32;2.83;;;;;;;21.85;43.61;101700.72;4989682;28;20054;-70
2022/06/28 01:30:06;;;;;;;3.75;2.92;;;;;;;21.83;43.54;101700.00;4992720;28;20521;-71
2022/06/28 01:32:33;;;;;;;4.45;2.90;;;;;;;21.80;43.74;101708.63;4995013;28;20056;-71
2022/06/28 01:35:02;;;;;;;4.00;2.65;;;;;;;21.79;43.86;101716.06;4992667;28;20499;-70
2022/06/28 01:37:29;;;;;;;3.75;3.10;;;;;;;21.76;43.27;101715.47;4986048;28;20495;-71
2022/06/28 01:39:55;;;;;;;3.42;2.42;;;;;;;21.73;43.46;101710.28;4981433;28;20482;-71
2022/06/28 01:42:22;;;;;;;3.72;2.58;;;;;;;21.72;43.47;101716.84;4985280;28;20529;-70
2022/06/28 01:44:50;;;;;;;3.97;2.83;;;;;;;21.70;43.47;101719.75;4991475;28;20042;-70
2022/06/28 01:47:18;;;;;;;3.60;2.65;;;;;;;21.69;43.88;101718.00;4994135;28;20487;-70
2022/06/28 01:49:45;;;;;;;4.10;2.78;;;;;;;21.66;44.08;101725.75;4992002;28;20042;-70
2022/06/28 01:52:12;;;;;;;3.55;2.50;;;;;;;21.64;43.68;101725.88;4997128;28;20546;-70
2022/06/28 01:54:38;;;;;;;3.70;2.33;;;;;;;21.61;43.60;101720.66;4989261;28;20134;-70
2022/06/28 01:57:05;;;;;;;4.88;2.92;;;;;;;21.60;43.60;101719.78;4989475;28;20081;-71
2022/06/28 01:59:31;;;;;;;3.72;2.63;;;;;;;21.57;43.93;101720.13;4992565;28;20141;-71
2022/06/28 02:01:58;;;;;;;3.97;2.60;;;;;;;21.57;43.83;101730.28;4997831;28;20072;-70
2022/06/28 02:04:29;;;;;;;4.80;3.13;;;;;;;21.59;43.92;101734.63;4994620;28;20045;-70
2022/06/28 02:06:57;;;;;;;4.18;3.05;;;;;;;21.54;43.96;101734.22;4988461;28;20053;-70
2022/06/28 02:09:24;;;;;;;3.65;2.75;;;;;;;21.53;43.86;101738.00;4984048;28;20073;-70
2022/06/28 02:11:52;;;;;;;3.33;2.60;;;;;;;21.52;43.67;101740.91;4983994;28;20132;-70
2022/06/28 02:14:19;;;;;;;4.00;2.67;;;;;;;21.50;43.81;101746.59;4995212;28;20085;-70
2022/06/28 02:16:46;;;;;;;3.85;3.00;;;;;;;21.47;44.13;101755.19;4992728;28;20146;-71
2022/06/28 02:19:13;;;;;;;4.03;2.88;;;;;;;21.47;44.31;101754.31;4990519;28;20074;-70
2022/06/28 02:21:43;;;;;;;4.40;2.80;;;;;;;21.47;43.77;101768.13;4991233;28;20476;-70
2022/06/28 02:24:11;;;;;;;3.88;2.67;;;;;;;21.44;44.18;101769.31;4994814;28;20216;-70
2022/06/28 02:26:38;;;;;;;4.80;3.08;;;;;;;21.42;43.93;101774.09;4993389;28;20452;-70
2022/06/28 02:29:05;;;;;;;4.20;2.90;;;;;;;;;;4991171;28;20056;-70
2022/06/28 02:31:31;;;;;;;3.78;2.58;;;;;;;;;;4993113;28;20050;-70
2022/06/28 02:33:58;;;;;;;3.70;2.75;;;;;;;21.41;43.99;101782.56;4989306;28;20572;-70
2022/06/28 02:41:46;;;;;;;4.28;3.03;;;;;;;21.38;44.29;101775.44;4986647;28;20058;-70
2022/06/28 02:44:16;;;;;;;4.65;2.95;;;;;;;21.38;44.51;101778.19;4989336;28;20080;-70
2022/06/28 02:46:42;;;;;;;4.68;2.92;;;;;;;21.38;44.15;101767.16;4988482;28;20054;-70
2022/06/28 02:49:09;;;;;;;4.63;2.88;;;;;;;21.39;44.45;101781.84;4984888;28;20150;-71
2022/06/28 02:51:35;;;;;;;4.88;2.90;;;;;;;21.38;44.13;101777.34;4992000;28;20096;-70
2022/06/28 02:54:05;;;;;;;5.28;3.10;;;;;;;21.37;44.61;101779.22;4988538;28;20100;-70
2022/06/28 02:56:32;;;;;;;4.43;3.15;;;;;;;21.37;44.23;101784.75;4981362;28;20133;-70
2022/06/28 02:58:59;;;;;;;3.97;2.95;;;;;;;21.35;44.48;101784.03;4993940;28;20145;-70
2022/06/28 03:01:26;;;;;;;5.40;3.15;;;;;;;21.36;44.56;101784.88;4986417;28;20463;-70
2022/06/28 03:03:52;;;;;;;4.30;3.05;;;;;;;21.33;44.03;101788.81;4977510;28;20138;-70
2022/06/28 03:06:19;;;;;;;4.60;3.25;;;;;;;21.32;44.31;101792.63;4975016;28;20399;-70
2022/06/28 03:08:46;;;;;;;4.30;3.13;;;;;;;21.30;44.47;101791.91;4979999;28;20073;-70
2022/06/28 03:11:12;;;;;;;5.22;3.30;;;;;;;21.29;44.56;101798.44;4975788;28;20090;-70
2022/06/28 03:13:39;;;;;;;4.78;3.10;;;;;;;21.27;44.58;101790.28;4987939;28;20042;-70
2022/06/28 03:16:06;;;;;;;3.88;2.80;;;;;;;21.27;44.22;101792.19;4985365;28;20089;-70
2022/06/28 03:18:32;;;;;;;5.10;3.15;;;;;;;21.25;44.42;101795.09;4972306;28;20070;-70
2022/06/28 03:20:59;;;;;;;4.57;3.03;;;;;;;21.25;44.22;101794.22;4997007;28;20133;-70
2022/06/28 03:23:26;;;;;;;4.13;2.92;;;;;;;21.24;44.03;101786.97;4990556;28;20046;-70
2022/06/28 03:25:52;;;;;;;5.28;2.92;;;;;;;21.22;44.18;101791.78;4984379;28;20045;-70
2022/06/28 03:28:19;;;;;;;4.22;2.85;;;;;;;21.21;44.47;101798.31;4986575;28;20380;-70
2022/06/28 03:30:51;;;;;;;4.90;3.10;;;;;;;21.17;44.84;101799.59;4981661;28;20499;-70
2022/06/28 03:33:17;;;;;;;4.35;2.92;;;;;;;21.17;44.34;101800.47;4984490;28;20848;-70
2022/06/28 03:35:44;;;;;;;3.88;3.15;;;;;;;21.18;44.47;101801.34;4992001;28;20046;-70
2022/06/28 03:38:10;;;;;;;5.78;3.47;;;;;;;21.18;44.59;101804.13;4985420;28;20490;-70
2022/06/28 03:40:37;;;;;;;4.88;3.28;;;;;;;21.15;44.59;101805.28;4978168;28;20142;-70
2022/06/28 03:43:04;;;;;;;4.40;3.08;;;;;;;21.15;44.42;101813.56;4977242;28;20046;-70
2022/06/28 03:45:31;;;;;;;6.93;3.53;;;;;;;21.14;44.73;101806.28;4986102;28;20053;-70
2022/06/28 03:47:57;;;;;;;5.95;3.78;;;;;;;21.13;44.64;101825.75;4983551;28;20069;-70
2022/06/28 03:50:24;;;;;;;5.28;3.50;;;;;;;21.11;44.56;101825.91;4990767;28;20082;-70
2022/06/28 03:52:50;;;;;;;5.70;3.58;;;;;;;21.12;44.53;101826.78;4987374;28;20125;-71
2022/06/28 03:55:17;;;;;;;5.72;3.65;;;;;;;21.10;44.49;101826.03;4990955;28;20379;-71
2022/06/28 03:57:43;;;;;;;6.35;3.53;;;;;;;21.08;44.64;101825.34;4993808;28;20129;-70
2022/06/28 04:00:11;;;;;;;3.90;3.10;;;;;;;21.10;44.88;101832.44;4992006;28;20042;-70
2022/06/28 04:02:37;;;;;;;5.60;3.50;;;;;;;21.08;45.03;101822.59;4978255;28;20054;-70
2022/06/28 04:05:05;;;;;;;5.18;3.50;;;;;;;21.07;45.10;101827.22;4975654;28;20109;-70
2022/06/28 04:07:31;;;;;;;5.35;3.90;;;;;;;21.07;45.07;101831.88;4971177;28;20204;-70
2022/06/28 04:09:58;;;;;;;6.07;3.60;;;;;;;21.06;45.29;101835.66;4985689;28;20338;-70
2022/06/28 04:12:24;;;;;;;5.28;3.80;;;;;;;21.07;44.70;101845.69;4995528;28;20146;-70
2022/06/28 04:14:51;;;;;;;4.97;3.78;;;;;;;21.05;45.12;101853.25;4996661;28;20137;-70
2022/06/28 04:17:17;;;;;;;6.35;3.63;;;;;;;21.03;44.82;101850.63;4990891;28;20150;-70
2022/06/28 04:19:44;;;;;;;5.78;3.95;;;;;;;21.02;45.05;101850.75;4994465;28;20136;-70
2022/06/28 04:22:10;;;;;;;5.20;3.58;;;;;;;21.01;45.16;101847.13;4987896;28;20137;-70
2022/06/28 04:24:37;;;;;;;5.53;3.67;;;;;;;21.00;44.97;101845.38;4968758;28;20038;-70
2022/06/28 04:27:04;;;;;;;5.75;3.83;;;;;;;20.99;45.45;101840.91;4990616;28;20093;-70
2022/06/28 04:29:30;;;;;;;5.55;3.83;;;;;;;21.00;44.99;101847.28;4986650;28;20591;-70
2022/06/28 04:31:57;;;;;;;5.25;3.70;;;;;;;20.99;45.26;101840.03;4987271;28;20314;-70
2022/06/28 04:34:24;;;;;;;5.97;3.85;;;;;;;20.98;45.37;101847.44;4989502;28;20097;-70
2022/06/28 04:36:50;;;;;;;5.18;3.90;;;;;;;20.98;44.74;101849.31;4989900;28;20046;-70
2022/06/28 04:39:17;;;;;;;5.63;3.75;;;;;;;20.98;45.08;101849.31;4976448;28;20474;-70
2022/06/28 04:41:44;;;;;;;6.80;4.05;;;;;;;20.96;45.06;101843.94;4992084;28;20502;-70
2022/06/28 04:44:10;;;;;;;6.13;4.55;;;;;;;20.97;45.42;101842.94;4980135;28;20470;-70
2022/06/28 04:46:38;;;;;;;5.30;3.80;;;;;;;20.96;45.70;101843.06;4996139;28;20100;-70
2022/06/28 04:49:07;;;;;;;6.28;4.30;;;;;;;20.96;45.47;101843.94;4988679;28;20098;-70
2022/06/28 04:51:33;;;;;;;5.28;3.65;;;;;;;20.97;45.96;101842.06;4988435;28;20262;-70
2022/06/28 04:54:00;;;;;;;6.20;4.20;;;;;;;20.97;45.44;101840.16;4982837;28;20073;-71
2022/06/28 04:56:26;;;;;;;6.07;4.03;;;;;;;20.97;45.90;101833.78;5020808;23;20077;-80
2022/06/28 04:58:53;;;;;;;6.70;3.88;;;;;;;20.97;45.49;101837.41;5017880;28;20041;-80
2022/06/28 05:01:20;;;;;;;6.43;3.90;;;;;;;20.97;45.86;101837.41;5019678;28;20488;-80
2022/06/28 05:03:46;;;;;;;5.60;4.28;;;;;;;20.98;46.22;101835.53;5018598;28;20149;-79
2022/06/28 05:06:13;;;;;;;5.53;3.92;;;;;;;20.99;46.21;101831.75;5015103;28;20465;-79
2022/06/28 05:08:40;;;;;;;6.53;3.78;;;;;;;21.00;46.70;101837.09;5024332;28;20045;-79
2022/06/28 05:11:07;;;;;;;8.70;4.07;;;;;;;21.04;46.56;101834.91;5033025;28;20076;-79
2022/06/28 05:13:35;;;;;;;5.63;4.00;;;;;;;21.08;47.32;101831.75;5026329;28;20054;-79
2022/06/28 05:16:02;;;;;;;5.85;4.25;;;;;;;21.16;47.42;101837.41;5025924;28;20053;-80
2022/06/28 05:18:28;;;;;;;6.10;3.85;;;;;;;21.25;47.38;101832.88;5033778;28;20045;-81
2022/06/28 05:20:59;;;;;;;6.28;4.00;;;;;;;21.34;47.39;101826.47;5044306;28;20053;-80
2022/06/28 05:23:26;;;;;;;6.13;4.00;;;;;;;21.45;47.43;101829.06;5018433;28;20123;-80
2022/06/28 05:25:53;;;;;;;5.18;3.80;;;;;;;21.56;47.81;101828.91;5018568;28;20046;-80
2022/06/28 05:28:20;;;;;;;7.43;4.05;;;;;;;21.69;47.34;101828.56;5040212;28;20065;-79
2022/06/28 05:30:47;;;;;;;6.30;4.00;;;;;;;21.83;47.33;101836.34;5017317;28;20463;-80
2022/06/28 05:33:14;;;;;;;5.63;3.78;;;;;;;21.96;47.16;101838.78;5018465;28;20057;-80
2022/06/28 05:35:41;;;;;;;5.93;3.58;;;;;;;22.12;47.40;101841.81;5025771;28;20085;-80
2022/06/28 05:38:07;;;;;;;5.93;4.43;;;;;;;22.23;46.96;101841.59;5020376;28;20096;-80
2022/06/28 05:40:34;;;;;;;5.78;3.97;;;;;;;22.37;46.82;101840.19;5040997;28;20103;-79
2022/06/28 05:43:01;;;;;;;5.55;3.67;;;;;;;22.49;47.04;101838.94;5043004;28;20041;-80
2022/06/28 05:45:27;;;;;;;6.13;3.92;;;;;;;22.63;46.90;101837.56;5043321;28;20072;-79
2022/06/28 05:47:54;;;;;;;5.32;3.97;;;;;;;22.74;46.63;101829.03;5058636;28;20048;-80
2022/06/28 05:50:21;;;;;;;5.13;3.45;;;;;;;22.89;46.50;101829.38;5070175;28;20050;-80
2022/06/28 05:52:47;;;;;;;5.63;3.58;;;;;;;23.01;46.27;101830.84;5041238;28;21319;-79
2022/06/28 05:55:14;;;;;;;5.28;3.22;;;;;;;23.13;46.07;101829.59;5045515;28;20049;-79
2022/06/28 05:57:41;;;;;;;5.20;2.75;;;;;;;23.24;45.71;101826.53;5034502;28;20424;-79
2022/06/28 06:00:08;;;;;;;5.57;3.20;;;;;;;23.35;45.67;101823.53;5031236;28;20445;-79
2022/06/28 06:02:35;;;;;;;4.97;2.80;;;;;;;23.47;44.93;101827.75;5026663;28;20704;-79
2022/06/28 06:05:02;;;;;;;4.35;3.00;;;;;;;23.58;45.37;101832.19;5021295;28;20053;-81
2022/06/28 06:07:30;;;;;;;4.32;2.63;;;;;;;23.70;45.24;101835.56;5011300;28;20057;-80
2022/06/28 06:09:57;;;;;;;5.07;2.67;;;;;;;23.79;44.37;101843.78;5025384;28;20132;-81
2022/06/28 06:12:23;;;;;;;4.68;2.78;;;;;;;23.89;44.30;101844.50;5030055;28;20075;-80
2022/06/28 06:14:50;;;;;;;4.38;2.80;;;;;;;23.98;44.07;101837.09;5021027;28;20042;-80
2022/06/28 06:17:17;;;;;;;5.03;2.72;;;;;;;24.08;43.66;101835.06;5031119;28;20130;-81
2022/06/28 06:19:44;;;;;;;5.05;2.90;;;;;;;24.17;43.52;101839.63;5025638;28;20053;-81
2022/06/28 06:22:11;;;;;;;4.25;2.33;;;;;;;24.25;43.48;101839.69;5017977;28;20052;-82
2022/06/28 06:24:37;;;;;;;4.45;2.65;;;;;;;24.34;43.23;101842.50;5034984;28;20045;-81
2022/06/28 06:27:04;;;;;;;4.68;2.85;;;;;;;24.41;43.37;101844.41;5033671;28;20073;-81
2022/06/28 06:29:31;;;;;;;4.38;2.45;;;;;;;24.49;42.88;101835.25;5027431;28;20354;-82
2022/06/28 06:31:57;;;;;;;5.60;2.80;;;;;;;24.57;42.97;101835.25;5039129;28;20041;-79
2022/06/28 06:34:24;;;;;;;3.75;2.47;;;;;;;24.65;43.09;101838.06;5037579;28;20104;-80
2022/06/28 06:36:51;;;;;;;5.05;2.65;;;;;;;24.74;42.49;101847.28;5029803;28;20053;-79
2022/06/28 06:39:18;;;;;;;5.53;2.83;;;;;;;24.81;42.48;101835.31;5026184;28;20049;-80
2022/06/28 06:41:45;;;;;;;5.85;2.70;;;;;;;24.89;42.42;101843.66;5029191;28;20416;-80
2022/06/28 06:44:12;;;;;;;5.68;2.50;;;;;;;24.98;42.29;101844.56;5040904;28;20049;-81
2022/06/28 06:46:39;;;;;;;4.88;2.80;;;;;;;25.06;42.08;101847.34;5034823;28;20049;-74
2022/06/28 06:49:06;;;;;;;4.63;3.30;;;;;;;25.14;41.90;101855.69;5027383;28;20047;-75
2022/06/28 06:51:33;;;;;;;4.72;2.80;;;;;;;25.21;41.78;101850.31;5035658;28;20041;-75
2022/06/28 06:54:00;;;;;;;5.90;2.65;;;;;;;25.26;41.57;101857.09;5031218;28;20045;-76
2022/06/28 06:56:27;;;;;;;3.92;2.47;;;;;;;25.32;41.14;101852.75;5019701;28;20049;-76
2022/06/28 06:58:54;;;;;;;4.22;2.67;;;;;;;25.37;41.30;101853.94;5026152;28;20442;-75
2022/06/28 07:01:21;;;;;;;5.97;2.80;;;;;;;25.43;41.24;101859.88;5021207;28;20076;-77
2022/06/28 07:04:15;;;;;;;4.22;2.60;;;;;;;25.48;41.15;101860.19;5009502;28;20420;-75
2022/06/28 07:06:44;;;;;;;5.47;2.85;;;;;;;25.50;40.72;101856.22;5015413;28;20461;-75
2022/06/28 07:09:14;;;;;;;5.18;2.60;;;;;;;25.57;40.55;101864.72;5023071;28;20056;-74
2022/06/28 07:11:41;;;;;;;3.47;2.38;;;;;;;25.61;40.65;101866.97;5014591;28;20053;-73
2022/06/28 07:14:08;;;;;;;4.80;2.65;;;;;;;25.67;40.51;101860.75;5037097;28;20068;-75
2022/06/28 07:16:35;;;;;;;4.68;2.83;;;;;;;25.72;40.53;101860.19;5042297;28;20041;-74
2022/06/28 07:19:01;;;;;;;5.15;2.45;;;;;;;25.76;39.99;101862.47;5028318;28;20036;-74
2022/06/28 07:21:28;;;;;;;3.75;2.63;;;;;;;25.81;40.23;101853.56;5023513;28;20052;-74
2022/06/28 07:23:55;;;;;;;4.60;2.60;;;;;;;25.86;39.69;101851.09;5034889;28;20041;-74
2022/06/28 07:26:23;;;;;;;3.75;2.30;;;;;;;25.94;39.67;101858.59;5026393;28;20128;-75
2022/06/28 07:28:50;;;;;;;4.75;2.40;;;;;;;25.98;39.45;101851.59;5027839;28;20459;-74
2022/06/28 07:31:16;;;;;;;4.57;2.38;;;;;;;26.04;39.22;101856.44;5028781;28;20061;-74
2022/06/28 07:33:43;;;;;;;4.88;2.30;;;;;;;26.10;39.42;101852.97;5024237;28;20072;-74
2022/06/28 07:36:10;;;;;;;4.00;1.95;;;;;;;26.15;39.05;101847.72;5023799;28;20078;-74
2022/06/28 07:38:37;;;;;;;5.05;2.53;;;;;;;26.19;38.94;101851.84;5016181;28;20053;-74
2022/06/28 07:41:03;;;;;;;4.43;2.40;;;;;;;26.25;38.83;101853.06;5019859;28;20131;-74
2022/06/28 07:43:30;;;;;;;4.35;2.28;;;;;;;26.29;38.45;101852.56;5014731;28;20075;-76
2022/06/28 07:45:57;;;;;;;4.78;2.47;;;;;;;26.35;38.43;101843.50;5055332;28;20305;-75
2022/06/28 07:48:23;;;;;;;4.32;1.98;;;;;;;26.39;37.91;101839.28;5049438;28;20048;-75
2022/06/28 07:53:35;;;;;;;3.53;1.50;;;;;;;26.48;37.73;101840.97;5043436;28;20495;-75
2022/06/28 07:56:02;;;;;;;2.58;1.40;;;;;;;26.56;37.62;101839.19;5052997;28;20047;-75
2022/06/28 07:58:29;;;;;;;2.63;1.50;;;;;;;26.60;37.04;101844.22;5050749;28;20247;-73
2022/06/28 08:00:56;;;;;;;3.22;1.90;;;;;;;26.67;36.43;101833.22;5053010;28;20128;-74
2022/06/28 08:03:23;;;;;;;3.65;1.70;;;;;;;26.72;36.47;101834.38;5040163;28;20121;-74
2022/06/28 08:05:49;;;;;;;3.42;1.77;;;;;;;26.76;35.99;101837.69;5045527;28;20480;-75
2022/06/28 08:08:16;;;;;;;3.13;1.63;;;;;;;26.78;35.90;101827.19;5038437;28;20080;-74
2022/06/28 08:10:43;;;;;;;3.53;1.50;;;;;;;26.81;36.04;101824.94;5035468;28;20471;-74
2022/06/28 08:13:12;;;;;;;2.58;1.52;;;;;;;26.84;36.07;101832.94;5050876;28;20111;-74
2022/06/28 08:15:44;;;;;;;4.00;1.70;;;;;;;26.90;35.93;101825.72;5046925;28;20566;-74
2022/06/28 08:18:13;;;;;;;3.22;1.52;;;;;;;26.95;35.78;101828.84;5050760;28;20060;-74
2022/06/28 08:20:40;;;;;;;3.17;1.50;;;;;;;27.01;35.57;101821.69;5058144;28;20044;-74
2022/06/28 08:23:09;;;;;;;3.53;1.83;;;;;;;27.10;34.61;101820.53;5056459;28;20045;-74
2022/06/28 08:25:37;;;;;;;3.88;1.67;;;;;;;27.12;35.31;101824.88;5047952;28;20402;-74
2022/06/28 08:28:04;;;;;;;2.95;1.65;;;;;;;27.17;35.29;101819.63;5044767;28;20064;-73
2022/06/28 08:30:31;;;;;;;3.05;1.40;;;;;;;27.22;35.35;101819.06;5054907;28;20057;-74
2022/06/28 08:32:57;;;;;;;4.53;1.90;;;;;;;27.29;34.89;101817.25;5051093;28;20495;-73
2022/06/28 08:35:24;;;;;;;5.03;1.92;;;;;;;27.35;34.70;101812.81;5045534;28;20042;-73
2022/06/28 08:37:51;;;;;;;3.97;2.10;;;;;;;27.41;34.74;101820.44;5032818;28;20095;-73
2022/06/28 08:40:25;;;;;;;4.07;2.00;;;;;;;27.47;34.55;101819.69;5041998;28;20053;-74
2022/06/28 08:42:54;;;;;;;4.47;2.10;;;;;;;27.51;34.68;101816.31;5070699;28;20044;-74
2022/06/28 08:45:22;;;;;;;3.88;2.10;;;;;;;27.56;34.52;101808.28;5045181;28;20103;-74
2022/06/28 08:47:54;;;;;;;4.10;1.50;;;;;;;27.64;33.40;101810.13;5054936;28;20106;-73
2022/06/28 08:50:34;;;;;;;2.97;1.17;;;;;;;27.68;33.29;101811.47;5053297;28;20461;-74
2022/06/28 08:53:04;;;;;;;3.75;1.67;;;;;;;27.73;33.83;101805.31;5051594;28;20041;-73
2022/06/28 08:55:34;;;;;;;2.40;1.58;;;;;;;27.81;34.06;101805.22;5054922;28;20500;-73
2022/06/28 08:58:08;;;;;;;3.85;1.50;;;;;;;27.85;34.17;101803.75;5047745;28;20075;-73
2022/06/28 09:00:35;;;;;;;2.83;1.40;;;;;;;27.91;33.56;101797.44;5049244;28;20049;-73
2022/06/28 09:03:02;;;;;;;4.00;1.45;;;;;;;27.97;33.66;101788.28;5053444;28;20053;-73
2022/06/28 09:05:29;;;;;;;2.75;1.58;;;;;;;28.03;33.24;101791.16;5053532;28;20545;-73
2022/06/28 09:07:57;;;;;;;4.10;1.92;;;;;;;28.10;33.12;101793.16;5041513;28;20072;-73
2022/06/28 09:10:25;;;;;;;4.97;2.20;;;;;;;28.14;32.65;101784.22;5041942;28;20049;-74
2022/06/28 09:13:14;;;;;;;3.83;2.08;;;;;;;28.18;31.98;101779.13;5045916;28;20396;-73
2022/06/28 09:15:45;;;;;;;3.28;1.75;;;;;;;28.20;31.79;101786.25;5045050;28;20668;-74
2022/06/28 09:18:12;;;;;;;3.80;1.90;;;;;;;28.17;32.46;101777.38;5047464;28;20084;-74
2022/06/28 09:20:38;;;;;;;4.35;1.90;;;;;;;28.20;32.42;101774.22;5048634;28;20053;-75
2022/06/28 09:23:30;;;;;;;4.00;2.08;;;;;;;28.25;32.10;101768.94;5052402;28;20072;-74
2022/06/28 09:26:09;;;;;;;3.38;1.40;;;;;;;28.30;32.08;101766.41;5077433;28;20074;-74
2022/06/28 09:28:42;;;;;;;3.40;1.67;;;;;;;28.36;31.93;101768.41;5045055;28;20111;-74
2022/06/28 09:31:30;;;;;;;3.25;1.50;;;;;;;28.40;31.57;101772.53;5062796;28;20491;-74
2022/06/28 09:34:00;;;;;;;2.97;1.35;;;;;;;28.46;31.90;101770.88;5037010;28;20041;-74
2022/06/28 09:36:27;;;;;;;4.25;1.58;;;;;;;28.50;32.22;101764.69;5057447;28;20049;-73
2022/06/28 09:38:56;;;;;;;4.35;2.08;;;;;;;28.55;31.74;101764.09;5040413;28;20053;-73
2022/06/28 09:41:26;;;;;;;3.28;1.60;;;;;;;28.61;31.20;101763.31;5043155;28;20156;-74
2022/06/28 09:44:07;;;;;;;3.13;2.05;;;;;;;28.65;30.51;101767.44;5048182;28;20534;-74
2022/06/28 09:46:34;;;;;;;3.67;1.83;;;;;;;28.62;31.51;101762.25;5058457;28;20048;-73
2022/06/28 09:49:03;;;;;;;4.10;1.73;;;;;;;28.66;31.30;101769.19;5056239;28;20454;-74
2022/06/28 09:51:32;;;;;;;3.35;1.38;;;;;;;28.68;31.20;101764.22;5054039;28;20131;-74
2022/06/28 09:54:05;;;;;;;3.88;1.67;;;;;;;28.71;31.40;101761.06;5040757;28;20042;-74
2022/06/28 09:56:51;;;;;;;3.70;1.63;;;;;;;28.75;31.04;101765.16;5043273;28;20041;-73
2022/06/28 09:59:18;;;;;;;3.42;1.60;;;;;;;28.79;31.45;101754.50;5044992;28;20076;-72
2022/06/28 10:01:47;;;;;;;3.63;1.98;;;;;;;28.85;30.76;101756.47;5049295;28;20045;-73
2022/06/28 10:04:15;;;;;;;3.10;1.67;;;;;;;28.91;30.97;101758.50;5047840;28;20041;-73
2022/06/28 10:06:41;;;;;;;3.10;1.50;;;;;;;28.94;30.55;101750.56;5048544;28;20045;-72
2022/06/28 10:09:08;;;;;;;3.55;1.92;;;;;;;29.00;29.86;101746.06;5060825;28;20099;-73
2022/06/28 10:17:34;;;;;;;4.07;1.75;;;;;;;29.08;28.71;101746.78;5046554;28;20518;-72
2022/06/28 10:20:04;;;;;;;4.05;1.70;;;;;;;29.05;29.17;101735.16;5036681;28;20080;-71
2022/06/28 10:22:31;;;;;;;3.53;1.73;;;;;;;29.03;28.94;101728.91;5042290;28;20056;-72
2022/06/28 10:25:02;;;;;;;3.83;1.60;;;;;;;29.04;28.55;101725.91;5037469;28;20049;-71
2022/06/28 10:27:30;;;;;;;3.88;1.58;;;;;;;29.00;29.47;101721.78;5056661;28;25732;-74
2022/06/28 10:30:08;;;;;;;2.95;1.60;;;;;;;29.06;28.52;101717.31;5043374;28;20045;-71
2022/06/28 10:32:46;;;;;;;2.90;1.65;;;;;;;29.08;28.78;101707.63;5049204;28;20515;-72
2022/06/28 10:35:31;;;;;;;4.82;1.63;;;;;;;29.06;28.36;101707.00;5046432;28;20052;-73
2022/06/28 10:38:10;;;;;;;4.28;1.70;;;;;;;29.12;28.64;101708.13;5041998;28;20041;-72
2022/06/28 10:40:47;;;;;;;3.15;1.63;;;;;;;29.16;28.17;101701.03;5044702;28;20042;-72
2022/06/28 10:43:15;;;;;;;3.33;1.50;;;;;;;29.18;28.93;101693.31;5051523;28;20055;-72
2022/06/28 10:45:59;;;;;;;2.67;1.60;;;;;;;29.23;29.01;101699.16;5048560;28;20103;-72
2022/06/28 10:48:27;;;;;;;4.22;1.40;;;;;;;29.27;29.04;101688.41;5050480;28;20044;-79
2022/06/28 10:51:02;;;;;;;2.13;1.30;;;;;;;29.37;28.68;101683.34;5043377;28;20447;-79
2022/06/28 10:53:50;;;;;;;3.88;1.60;;;;;;;29.41;28.49;101693.06;5045886;28;20075;-79
2022/06/28 10:56:17;;;;;;;8.90;2.30;;;;;;;29.47;29.01;101679.13;5051782;28;20099;-79
2022/06/28 10:59:00;;;;;;;3.92;1.65;;;;;;;29.58;27.50;101683.25;5038507;28;20154;-79
2022/06/28 11:01:38;;;;;;;2.78;1.50;;;;;;;29.66;27.69;101679.41;5041149;28;20678;-79
2022/06/28 11:04:18;;;;;;;4.07;1.73;;;;;;;29.74;27.29;101676.44;5047526;28;20068;-80
2022/06/28 11:06:48;;;;;;;3.38;1.67;;;;;;;29.77;27.59;101668.50;5045899;28;20041;-79
2022/06/28 11:09:33;;;;;;;2.65;1.48;;;;;;;29.84;27.21;101662.91;5013533;28;20135;-78
2022/06/28 11:12:06;;;;;;;3.75;1.23;;;;;;;29.88;26.72;101665.13;5051676;28;20051;-79
2022/06/28 11:14:43;;;;;;;3.42;1.40;;;;;;;29.92;27.22;101667.47;5037101;28;20507;-79
2022/06/28 11:17:25;;;;;;;3.70;1.33;;;;;;;29.96;26.65;101672.50;5050094;28;20045;-80
2022/06/28 11:19:54;;;;;;;;;;;;;;;29.67;28.81;101658.75;5035245;28;20084;-79
2022/06/28 11:22:26;;;;;;;2.47;1.00;;;;;;;30.01;25.96;101652.25;5045008;28;19971;-79
2022/06/28 11:24:55;;;;;;;1.88;1.10;;;;;;;30.05;26.63;101656.38;5036884;28;20046;-79
2022/06/28 11:27:22;;;;;;;3.78;1.15;;;;;;;30.08;26.08;101659.59;5046851;28;20045;-79
2022/06/28 11:29:54;;;;;;;2.50;1.02;;;;;;;30.16;25.41;101662.19;5052439;28;20045;-79
2022/06/28 11:32:31;;;;;;;;;;;;;;;29.85;27.27;101645.91;5043536;28;20576;-79
2022/06/28 11:35:01;;;;;;;2.20;0.90;;;;;;;30.12;25.92;101643.25;5046075;28;19992;-79
2022/06/28 11:37:29;;;;;;;2.85;1.05;;;;;;;30.18;25.76;101643.25;5059042;28;20423;-79
2022/06/28 11:39:59;;;;;;;2.58;1.20;;;;;;;30.21;25.04;101640.03;5050259;28;20053;-79
2022/06/28 11:42:42;;;;;;;2.25;1.13;;;;;;;30.19;24.97;101642.16;5095132;27;20433;-72
2022/06/28 11:45:12;;;;;;;2.53;1.00;;;;;;;30.18;25.07;101634.84;5030624;28;20042;-72
2022/06/28 11:47:44;;;;;;;2.42;1.02;;;;;;;30.20;24.25;101649.50;5000580;28;20049;-73